Time;durP1;ratioP1;P1;durP2;ratioP2;P2;SDS_P1;SDS_P2;PMS_P1;PMS_P2;Temp;Humidity;BMP_temperature;BMP_pressure;BME280_temperature;BME280_humidity;BME280_pressure;Samples;Min_cycle;Max_cycle;Signal;HPM_P1;HPM_P2
2021/11/12 00:11:48;;;;;;;27.77;10.20;;;;;;;3.22;78.70;99140.78;4932741;29;20097;-55
2021/11/12 00:13:18;;;;;;;21.42;9.82;;;;;;;3.07;77.45;99119.59;4931933;29;20043;-52
2021/11/12 00:15:51;;;;;;;21.90;8.07;;;;;;;3.14;76.92;99111.78;4919382;29;20122;-52
2021/11/12 00:18:18;;;;;;;24.08;9.88;;;;;;;3.11;76.77;99099.00;4948087;29;20043;-52
2021/11/12 00:20:45;;;;;;;18.65;7.18;;;;;;;3.14;76.33;99072.44;4934907;29;20035;-55
2021/11/12 00:23:12;;;;;;;22.85;9.45;;;;;;;3.22;75.49;99080.88;4927341;29;20071;-53
2021/11/12 00:25:41;;;;;;;17.83;8.15;;;;;;;3.22;74.72;99083.44;4898555;29;20443;-55
2021/11/12 00:28:07;;;;;;;20.70;9.00;;;;;;;3.11;74.58;99065.59;4921365;29;20051;-55
2021/11/12 00:30:51;;;;;;;22.08;8.93;;;;;;;3.28;75.08;99079.06;4912527;29;20507;-55
2021/11/12 00:33:44;;;;;;;14.20;5.90;;;;;;;3.22;73.96;99071.44;4911951;29;20048;-51
2021/11/12 00:38:52;;;;;;;20.67;8.43;;;;;;;3.14;74.06;99060.41;4919717;29;20138;-54
2021/11/12 00:41:40;;;;;;;23.48;9.98;;;;;;;3.18;74.38;99046.69;4914549;29;20043;-55
2021/11/12 00:44:24;;;;;;;16.73;6.63;;;;;;;3.24;73.92;99054.31;4931861;29;20130;-54
2021/11/12 00:46:59;;;;;;;13.57;6.38;;;;;;;3.19;74.09;99044.97;4932760;29;20050;-51
2021/11/12 00:49:28;;;;;;;18.98;9.18;;;;;;;3.08;74.25;99032.28;4932021;29;20075;-52
2021/11/12 00:51:58;;;;;;;22.17;10.60;;;;;;;3.06;74.40;99018.59;4929956;29;20047;-51
2021/11/12 00:54:23;;;;;;;21.83;9.70;;;;;;;3.14;74.41;99021.06;4914908;29;20059;-49
2021/11/12 00:56:50;;;;;;;23.92;10.70;;;;;;;3.27;74.37;99009.72;4949138;29;20046;-54
2021/11/12 00:59:18;;;;;;;22.10;10.55;;;;;;;3.35;74.17;99002.72;4930784;29;20051;-55
2021/11/12 01:01:44;;;;;;;26.50;11.10;;;;;;;3.41;73.89;98993.19;4912984;29;20044;-52
2021/11/12 01:04:14;;;;;;;22.20;9.30;;;;;;;3.47;73.59;98994.81;4917660;29;20044;-47
2021/11/12 01:06:40;;;;;;;24.52;10.88;;;;;;;3.53;73.65;98994.72;4931815;29;20132;-49
2021/11/12 01:09:09;;;;;;;20.45;9.88;;;;;;;3.68;73.06;98985.91;4932083;29;20467;-51
2021/11/12 01:11:36;;;;;;;20.95;9.50;;;;;;;3.65;72.93;98984.25;4932980;29;20031;-57
2021/11/12 01:14:04;;;;;;;19.05;9.18;;;;;;;3.60;72.64;98973.19;4930641;29;20842;-49
2021/11/12 01:16:30;;;;;;;17.02;8.80;;;;;;;3.65;72.43;98973.97;4914899;29;20083;-51
2021/11/12 01:18:56;;;;;;;15.00;7.20;;;;;;;3.54;72.12;98960.44;4910522;29;20044;-52
2021/11/12 01:21:24;;;;;;;22.40;8.55;;;;;;;3.49;71.86;98963.97;4928559;29;20102;-54
2021/11/12 01:23:51;;;;;;;18.17;8.38;;;;;;;3.47;72.01;98948.56;4913670;29;20659;-51
2021/11/12 01:26:20;;;;;;;17.17;8.07;;;;;;;3.37;71.85;98936.75;4928982;29;20115;-54
2021/11/12 01:28:45;;;;;;;16.27;8.18;;;;;;;3.50;71.58;98953.69;4926060;29;20512;-54
2021/11/12 01:31:12;;;;;;;17.35;8.10;;;;;;;3.55;71.36;98940.75;4905053;29;20060;-53
2021/11/12 01:33:39;;;;;;;13.85;7.35;;;;;;;3.53;71.07;98937.34;4923013;29;20624;-50
2021/11/12 01:38:40;;;;;;;11.82;5.72;;;;;;;3.46;70.77;98940.88;4944241;28;20039;-52
2021/11/12 01:41:06;;;;;;;16.30;7.72;;;;;;;3.44;71.02;98935.78;4939061;29;20039;-54
2021/11/12 01:43:42;;;;;;;14.52;6.05;;;;;;;3.54;70.36;98931.34;4899142;29;20051;-51
2021/11/12 01:56:34;;;;;;;9.65;4.90;;;;;;;3.40;70.11;98893.88;4944150;29;20043;-53
2021/11/12 02:01:49;;;;;;;13.65;7.22;;;;;;;3.35;70.24;98910.25;4932870;29;20521;-56
2021/11/12 02:04:19;;;;;;;11.80;6.30;;;;;;;3.33;70.08;98894.03;4935555;29;20048;-56
2021/11/12 02:06:46;;;;;;;14.25;7.57;;;;;;;3.35;70.25;98892.25;4941277;29;20104;-54
2021/11/12 02:09:21;;;;;;;9.10;4.35;;;;;;;3.30;70.08;98886.34;4945375;29;20050;-53
2021/11/12 02:11:51;;;;;;;15.38;7.82;;;;;;;3.23;70.49;98864.25;4917351;29;20187;-54
2021/11/12 02:14:19;;;;;;;18.23;8.32;;;;;;;3.22;70.77;98862.56;4917999;29;20054;-54
2021/11/12 02:17:05;;;;;;;16.52;8.40;;;;;;;3.29;70.62;98862.44;4935396;29;20035;-54
2021/11/12 02:19:33;;;;;;;17.38;8.90;;;;;;;3.35;70.97;98849.44;4941890;29;20051;-54
2021/11/12 02:22:12;;;;;;;17.80;8.85;;;;;;;3.29;71.12;98853.88;4917446;29;20467;-58
2021/11/12 02:24:44;;;;;;;17.85;8.65;;;;;;;3.25;71.59;98850.50;4935118;29;20098;-49
2021/11/12 02:27:14;;;;;;;17.25;8.20;;;;;;;3.28;71.86;98836.75;4932893;29;20054;-49
2021/11/12 02:29:47;;;;;;;20.63;9.57;;;;;;;3.26;72.32;98826.50;4924703;29;20073;-50
2021/11/12 02:32:15;;;;;;;18.38;9.45;;;;;;;3.33;72.89;98832.38;4951214;29;20066;-55
2021/11/12 02:34:42;;;;;;;25.17;8.30;;;;;;;3.36;72.69;98835.72;4934027;29;20185;-55
2021/11/12 02:37:08;;;;;;;22.05;10.20;;;;;;;3.26;73.22;98831.63;4939460;29;20043;-53
2021/11/12 02:39:35;;;;;;;17.52;8.23;;;;;;;3.10;73.93;98821.69;4945009;29;20066;-53
2021/11/12 02:42:01;;;;;;;23.20;9.98;;;;;;;2.95;74.82;98812.53;4913386;29;20052;-52
2021/11/12 02:44:33;;;;;;;20.00;8.75;;;;;;;2.87;75.12;98809.28;4926016;29;20082;-55
2021/11/12 02:46:59;;;;;;;22.60;11.13;;;;;;;2.92;75.59;98810.88;4919695;29;20094;-51
2021/11/12 02:49:25;;;;;;;25.70;11.80;;;;;;;2.82;76.63;98806.78;4921221;29;20076;-52
2021/11/12 02:51:51;;;;;;;25.15;10.75;;;;;;;2.73;78.15;98799.22;4926881;29;20082;-53
2021/11/12 02:54:17;;;;;;;17.65;8.70;;;;;;;2.68;79.39;98798.47;4934005;29;20170;-48
2021/11/12 02:56:44;;;;;;;15.15;7.90;;;;;;;2.57;81.45;98797.78;4935468;29;20396;-53
2021/11/12 02:59:12;;;;;;;19.73;9.93;;;;;;;2.59;81.90;98795.19;4919452;29;20036;-54
2021/11/12 03:01:44;;;;;;;18.90;9.05;;;;;;;2.49;83.83;98804.78;4916297;29;20066;-55
2021/11/12 03:04:12;;;;;;;22.92;10.13;;;;;;;2.39;85.41;98808.34;4933623;29;20073;-51
2021/11/12 03:06:38;;;;;;;19.15;8.95;;;;;;;2.15;87.28;98783.09;4933584;29;20452;-55
2021/11/12 03:09:07;;;;;;;22.10;8.57;;;;;;;2.24;87.91;98795.78;4916452;29;20035;-58
2021/11/12 03:11:37;;;;;;;18.27;9.85;;;;;;;2.21;87.99;98781.25;4930832;29;20094;-53
2021/11/12 03:14:04;;;;;;;23.30;9.77;;;;;;;2.19;88.11;98775.34;4940494;29;20066;-55
2021/11/12 03:16:31;;;;;;;22.38;9.05;;;;;;;2.11;88.91;98772.88;4911311;29;20229;-56
2021/11/12 03:18:58;;;;;;;19.70;11.35;;;;;;;2.17;89.18;98766.81;4927547;29;20043;-57
2021/11/12 03:21:25;;;;;;;20.30;10.10;;;;;;;2.31;88.41;98766.56;4916607;29;20067;-51
2021/11/12 04:07:15;;;;;;;17.27;8.73;;;;;;;2.31;88.27;98625.53;4926827;29;20043;-53
2021/11/12 04:18:14;;;;;;;17.15;8.00;;;;;;;2.34;87.49;98597.28;4937246;29;20432;-53
2021/11/12 04:40:20;;;;;;;23.00;10.57;;;;;;;2.09;89.27;98558.47;4932519;29;20039;-52
2021/11/12 05:10:37;;;;;;;27.85;12.02;;;;;;;1.95;92.25;98489.50;4928608;29;20132;-58
2021/11/12 05:56:58;;;;;;;23.52;11.85;;;;;;;1.99;98.67;98419.34;4919654;29;20115;-52
2021/11/12 05:59:24;;;;;;;14.02;7.07;;;;;;;1.97;99.61;98420.28;4924765;29;20043;-54
2021/11/12 06:01:52;;;;;;;23.52;11.90;;;;;;;1.97;100.00;98416.00;4929176;29;20054;-51
2021/11/12 06:04:20;;;;;;;22.73;10.98;;;;;;;1.87;100.00;98403.41;4924618;29;20087;-54
2021/11/12 06:06:46;;;;;;;22.13;10.05;;;;;;;1.77;100.00;98401.91;4921593;29;20047;-50
2021/11/12 06:09:12;;;;;;;28.02;14.38;;;;;;;1.78;100.00;98406.16;4928905;29;20054;-50
2021/11/12 06:11:37;;;;;;;14.18;7.68;;;;;;;1.75;100.00;98408.75;4932913;29;20071;-48
2021/11/12 06:14:04;;;;;;;22.10;8.80;;;;;;;1.72;100.00;98403.72;4930592;29;20046;-52
2021/11/12 06:16:30;;;;;;;19.25;8.70;;;;;;;1.75;100.00;98417.28;4912023;29;20039;-49
2021/11/12 06:18:56;;;;;;;17.20;8.43;;;;;;;1.60;100.00;98384.28;4933035;29;20052;-48
2021/11/12 06:21:23;;;;;;;26.85;11.57;;;;;;;1.65;100.00;98395.28;4934175;29;20039;-50
2021/11/12 06:23:49;;;;;;;33.42;14.80;;;;;;;1.68;100.00;98402.91;4919773;29;20035;-55
2021/11/12 06:26:15;;;;;;;18.15;8.88;;;;;;;1.70;100.00;98417.38;4932901;29;20103;-47
2021/11/12 06:28:41;;;;;;;31.67;14.23;;;;;;;1.73;100.00;98415.66;4933021;29;20079;-52
2021/11/12 06:31:07;;;;;;;39.30;15.38;;;;;;;1.76;100.00;98406.19;4932800;29;20047;-54
2021/11/12 06:33:33;;;;;;;17.85;7.45;;;;;;;1.78;100.00;98406.97;4931625;29;20055;-54
2021/11/12 06:35:59;;;;;;;26.92;11.95;;;;;;;1.80;100.00;98401.81;4932812;29;20173;-54
2021/11/12 06:38:27;;;;;;;22.88;11.30;;;;;;;1.77;100.00;98387.38;4930012;29;20107;-50
2021/11/12 06:40:54;;;;;;;30.15;12.45;;;;;;;1.75;100.00;98389.13;4931157;29;20046;-53
2021/11/12 06:43:24;;;;;;;22.88;11.57;;;;;;;1.68;100.00;98370.44;4932772;29;20044;-54
2021/11/12 06:51:24;;;;;;;20.05;9.75;;;;;;;1.63;100.00;98359.44;4930210;29;20118;-51
2021/11/12 06:53:54;;;;;;;14.98;7.35;;;;;;;1.69;100.00;98366.19;4913357;29;20078;-50
2021/11/12 06:56:23;;;;;;;22.75;9.65;;;;;;;1.76;100.00;98367.75;4928968;29;20098;-56
2021/11/12 06:58:50;;;;;;;20.55;8.63;;;;;;;1.61;100.00;98345.00;4933302;29;20093;-50
2021/11/12 07:01:16;;;;;;;17.15;8.15;;;;;;;1.74;100.00;98366.06;4933118;29;20055;-53
2021/11/12 07:03:43;;;;;;;23.98;11.82;;;;;;;1.73;100.00;98354.97;4933339;29;20578;-52
2021/11/12 07:06:09;;;;;;;29.27;12.35;;;;;;;1.75;100.00;98342.16;4919497;29;20050;-50
2021/11/12 07:08:35;;;;;;;22.65;8.80;;;;;;;1.76;100.00;98346.41;4933595;29;20042;-64
2021/11/12 07:11:01;;;;;;;22.85;10.00;;;;;;;1.70;100.00;98343.09;4932207;29;20103;-56
2021/11/12 07:13:30;;;;;;;19.52;9.55;;;;;;;1.73;100.00;98342.19;4932275;29;20464;-55
2021/11/12 07:15:57;;;;;;;16.65;7.53;;;;;;;1.67;100.00;98340.56;4931052;29;20043;-50
2021/11/12 07:18:24;;;;;;;30.27;13.00;;;;;;;1.70;100.00;98340.53;4901865;29;20496;-51
2021/11/12 07:20:52;;;;;;;17.83;8.32;;;;;;;1.72;100.00;98322.59;4913541;29;20051;-55
2021/11/12 07:23:23;;;;;;;12.95;6.30;;;;;;;1.75;100.00;98329.34;4897809;29;20055;-53
2021/11/12 07:25:50;;;;;;;14.77;5.63;;;;;;;1.72;100.00;98320.03;4925534;29;20043;-50
2021/11/12 07:28:16;;;;;;;21.60;10.38;;;;;;;1.69;100.00;98309.81;4925856;29;20043;-52
2021/11/12 07:30:43;;;;;;;24.77;11.80;;;;;;;1.75;100.00;98307.13;4916383;29;20061;-55
2021/11/12 07:33:12;;;;;;;20.98;9.88;;;;;;;1.76;100.00;98305.41;4933479;29;20134;-49
2021/11/12 07:35:54;;;;;;;21.85;10.55;;;;;;;1.82;100.00;98311.25;4912172;29;20047;-50
2021/11/12 07:38:26;;;;;;;23.40;11.32;;;;;;;1.78;100.00;98296.00;4931592;29;20047;-52
2021/11/12 07:49:11;;;;;;;15.15;7.20;;;;;;;1.70;100.00;98273.94;4856052;29;20135;-48
2021/11/12 07:51:40;;;;;;;11.80;5.85;;;;;;;1.83;100.00;98292.47;4918108;29;20469;-51
2021/11/12 07:54:06;;;;;;;14.02;6.07;;;;;;;1.80;100.00;98287.38;4924241;29;20059;-51
2021/11/12 07:56:32;;;;;;;17.83;8.52;;;;;;;1.86;100.00;98282.13;4916962;29;20306;-51
2021/11/12 07:58:58;;;;;;;15.45;7.60;;;;;;;1.93;100.00;98278.56;4914263;29;20474;-52
2021/11/12 08:01:25;;;;;;;16.17;6.72;;;;;;;1.90;100.00;98281.19;4929996;29;20110;-50
2021/11/12 08:03:54;;;;;;;15.05;7.32;;;;;;;1.85;100.00;98251.41;4929245;29;20408;-51
2021/11/12 08:06:21;;;;;;;13.02;6.97;;;;;;;1.96;100.00;98264.81;4924734;29;20051;-53
2021/11/12 08:08:54;;;;;;;8.05;4.80;;;;;;;2.03;100.00;98276.63;4927680;29;20047;-49
2021/11/12 08:11:27;;;;;;;14.68;7.32;;;;;;;2.05;100.00;98277.41;4932091;29;20047;-49
2021/11/12 08:19:01;;;;;;;11.57;6.25;;;;;;;2.11;100.00;98261.91;4931380;29;20249;-49
2021/11/12 08:21:36;;;;;;;;;;;;;;;2.20;100.00;98258.31;4914763;29;20035;-51
2021/11/12 08:24:53;;;;;;;13.25;5.35;;;;;;;2.19;100.00;98266.88;4914402;29;20341;-50
2021/11/12 08:37:54;;;;;;;16.35;8.57;;;;;;;2.26;100.00;98250.44;4929637;29;20508;-51
2021/11/12 08:48:25;;;;;;;15.55;7.78;;;;;;;2.24;100.00;98237.69;4913261;29;20090;-49
2021/11/12 08:50:52;;;;;;;17.98;8.85;;;;;;;2.27;100.00;98229.06;4914295;29;20048;-51
2021/11/12 08:53:18;;;;;;;12.18;6.97;;;;;;;2.22;100.00;98230.91;4931026;29;20059;-50
2021/11/12 08:55:45;;;;;;;22.08;9.27;;;;;;;2.08;100.00;98215.84;4930711;29;20415;-50
2021/11/12 08:58:12;;;;;;;19.95;9.48;;;;;;;2.12;100.00;98226.00;4931547;29;20048;-51
2021/11/12 09:00:40;;;;;;;19.17;9.52;;;;;;;2.14;100.00;98225.97;4930172;29;20119;-50
2021/11/12 09:03:07;;;;;;;21.52;10.00;;;;;;;2.14;100.00;98243.91;4914101;29;20086;-50
2021/11/12 09:05:33;;;;;;;17.70;9.73;;;;;;;2.21;100.00;98232.59;4909227;29;20043;-52
2021/11/12 09:07:59;;;;;;;16.45;8.18;;;;;;;2.23;100.00;98241.13;4913084;29;20490;-52
2021/11/12 09:10:29;;;;;;;14.43;6.18;;;;;;;2.32;100.00;98232.34;4927280;29;20131;-52
2021/11/12 09:13:00;;;;;;;16.38;7.57;;;;;;;2.29;100.00;98228.16;4929227;29;20097;-48
2021/11/12 09:15:32;;;;;;;11.73;5.88;;;;;;;2.23;100.00;98230.03;4929286;29;20138;-49
2021/11/12 09:18:01;;;;;;;9.80;5.28;;;;;;;2.01;100.00;98198.94;4927221;29;20547;-50
2021/11/12 09:20:27;;;;;;;11.13;5.32;;;;;;;2.21;100.00;98222.34;4921243;29;20055;-52
2021/11/12 09:22:54;;;;;;;21.40;9.88;;;;;;;2.20;100.00;98220.66;4930281;29;20036;-49
2021/11/12 09:25:21;;;;;;;21.45;10.43;;;;;;;2.30;100.00;98222.16;4929870;29;20092;-52
2021/11/12 09:27:47;;;;;;;19.23;7.63;;;;;;;2.22;100.00;98206.09;4913610;29;20504;-51
2021/11/12 09:30:21;;;;;;;17.20;8.07;;;;;;;2.35;100.00;98222.03;4931037;29;20078;-49
2021/11/12 09:32:48;;;;;;;18.00;6.25;;;;;;;2.38;100.00;98219.38;4931794;29;20047;-51
2021/11/12 09:35:14;;;;;;;27.15;10.25;;;;;;;2.39;100.00;98210.81;4928186;29;20040;-52
2021/11/12 09:37:40;;;;;;;16.10;7.13;;;;;;;2.40;100.00;98215.06;4929302;29;20047;-50
2021/11/12 09:40:07;;;;;;;25.20;10.82;;;;;;;2.35;100.00;98178.44;4930529;29;20063;-49
2021/11/12 09:42:35;;;;;;;9.85;4.45;;;;;;;2.50;100.00;98216.50;4931555;29;20508;-48
2021/11/12 09:45:03;;;;;;;18.88;9.32;;;;;;;2.54;100.00;98213.81;4930698;29;20044;-50
2021/11/12 09:47:30;;;;;;;17.05;8.20;;;;;;;2.56;100.00;98214.59;4907065;29;20044;-48
2021/11/12 09:49:59;;;;;;;19.95;9.45;;;;;;;2.72;100.00;98212.47;4928371;29;20071;-50
2021/11/12 09:52:25;;;;;;;28.10;11.15;;;;;;;2.69;100.00;98224.56;4930887;29;20091;-51
2021/11/12 09:54:52;;;;;;;14.75;7.30;;;;;;;2.69;100.00;98217.72;4929733;29;20051;-50
2021/11/12 09:57:18;;;;;;;21.67;9.93;;;;;;;2.71;100.00;98221.09;4930562;29;20055;-46
2021/11/12 09:59:49;;;;;;;13.13;6.70;;;;;;;2.72;100.00;98216.81;4930407;29;20039;-50
2021/11/12 10:02:16;;;;;;;25.42;10.50;;;;;;;2.76;100.00;98221.81;4934367;29;20173;-47
2021/11/12 10:04:43;;;;;;;18.20;7.75;;;;;;;2.83;100.00;98222.47;4920332;29;20095;-47
2021/11/12 10:07:12;;;;;;;15.52;6.95;;;;;;;2.84;100.00;98227.56;4930674;29;20044;-48
2021/11/12 10:09:38;;;;;;;27.30;11.90;;;;;;;2.85;100.00;98219.00;4933816;29;20139;-53
2021/11/12 10:12:06;;;;;;;21.23;9.57;;;;;;;2.94;100.00;98223.03;4933999;29;20043;-50
2021/11/12 10:17:11;;;;;;;19.97;9.40;;;;;;;2.93;100.00;98217.03;4933671;29;20428;-50
2021/11/12 10:19:47;;;;;;;24.02;9.23;;;;;;;2.91;100.00;98228.25;4915663;29;20375;-50
2021/11/12 10:22:15;;;;;;;19.00;9.45;;;;;;;2.95;100.00;98219.56;4932683;29;20043;-51
2021/11/12 10:24:42;;;;;;;23.30;8.00;;;;;;;2.98;100.00;98217.75;4914091;29;20567;-50
2021/11/12 10:27:20;;;;;;;15.30;7.68;;;;;;;2.97;100.00;98226.38;4932074;29;20047;-50
2021/11/12 10:29:48;;;;;;;29.55;12.45;;;;;;;3.04;100.00;98227.03;4927711;29;20036;-49
2021/11/12 10:32:19;;;;;;;17.15;7.85;;;;;;;2.97;100.00;98205.00;4932084;29;20055;-48
2021/11/12 10:34:47;;;;;;;24.92;10.95;;;;;;;3.13;100.00;98228.50;4932414;29;20515;-49
2021/11/12 10:37:21;;;;;;;27.10;10.70;;;;;;;3.11;100.00;98212.28;4903970;29;20431;-56
2021/11/12 10:39:57;;;;;;;9.07;5.60;;;;;;;3.22;100.00;98225.69;4928789;29;20175;-50
2021/11/12 10:42:26;;;;;;;19.48;9.23;;;;;;;3.21;100.00;98229.13;4933731;29;20046;-50
2021/11/12 10:45:04;;;;;;;17.33;8.93;;;;;;;3.13;100.00;98219.09;4933297;29;20408;-49
2021/11/12 10:47:32;;;;;;;17.20;8.50;;;;;;;3.23;100.00;98223.06;4901798;29;20287;-49
2021/11/12 10:50:07;;;;;;;17.60;8.80;;;;;;;3.24;100.00;98237.59;4897610;29;20067;-49
2021/11/12 10:52:34;;;;;;;23.88;10.55;;;;;;;3.29;100.00;98227.19;4931810;29;20044;-51
2021/11/12 10:55:17;;;;;;;21.63;9.45;;;;;;;3.34;100.00;98218.47;4914959;29;20453;-49
2021/11/12 10:57:57;;;;;;;18.15;9.65;;;;;;;3.42;100.00;98229.34;4932356;29;20107;-48
2021/11/12 11:00:45;;;;;;;24.70;9.48;;;;;;;3.51;100.00;98233.38;4933504;29;20070;-51
2021/11/12 11:03:15;;;;;;;15.80;7.43;;;;;;;3.51;100.00;98237.69;4932989;29;20179;-50
2021/11/12 11:05:47;;;;;;;7.00;4.13;;;;;;;3.43;100.00;98212.22;4931951;29;20603;-52
2021/11/12 11:08:26;;;;;;;18.58;9.50;;;;;;;3.64;100.00;98242.41;4932556;29;20051;-53
2021/11/12 11:11:04;;;;;;;10.45;5.22;;;;;;;3.70;100.00;98233.69;4901972;29;20044;-52
2021/11/12 11:13:35;;;;;;;17.38;8.82;;;;;;;3.78;100.00;98240.25;4930581;29;20658;-50
2021/11/12 11:16:05;;;;;;;10.25;5.43;;;;;;;3.73;100.00;98226.72;4930292;29;20062;-49
2021/11/12 11:18:40;;;;;;;14.32;7.18;;;;;;;3.89;100.00;98245.09;4913087;29;20471;-51
2021/11/12 11:21:12;;;;;;;10.52;6.35;;;;;;;3.94;100.00;98237.22;4927857;29;20044;-48
2021/11/12 11:23:59;;;;;;;14.85;7.32;;;;;;;4.00;100.00;98249.91;4933479;29;20042;-50
2021/11/12 11:26:49;;;;;;;10.93;5.97;;;;;;;3.97;100.00;98250.00;4915143;29;20574;-48
2021/11/12 11:29:15;;;;;;;;;;;;;;;4.06;100.00;98253.13;4932587;29;20043;-49
2021/11/12 11:31:41;;;;;;;11.10;5.68;;;;;;;4.03;100.00;98247.25;4933450;29;19930;-51
2021/11/12 11:34:09;;;;;;;11.90;6.40;;;;;;;4.08;100.00;98255.66;4930840;29;20040;-50
2021/11/12 11:36:38;;;;;;;14.27;6.78;;;;;;;4.12;100.00;98255.50;4931244;29;20044;-48
2021/11/12 11:39:09;;;;;;;5.78;3.78;;;;;;;4.12;100.00;98249.53;4914591;29;20044;-49
2021/11/12 11:41:35;;;;;;;9.48;5.50;;;;;;;4.13;100.00;98257.19;4931903;29;20065;-49
2021/11/12 11:44:01;;;;;;;9.95;4.95;;;;;;;4.15;100.00;98259.69;4915723;29;20532;-50
2021/11/12 11:46:30;;;;;;;10.75;5.57;;;;;;;4.21;100.00;98254.38;4931503;29;20559;-47
2021/11/12 11:48:58;;;;;;;11.40;5.95;;;;;;;4.21;100.00;98256.94;4912715;29;20074;-49
2021/11/12 11:51:25;;;;;;;8.32;4.45;;;;;;;4.25;100.00;98254.22;4899316;29;20401;-51
2021/11/12 11:53:51;;;;;;;11.00;5.20;;;;;;;4.23;100.00;98256.03;4930615;29;20048;-50
2021/11/12 11:56:26;;;;;;;10.55;5.22;;;;;;;4.29;100.00;98262.69;4900313;29;20127;-51
2021/11/12 11:58:59;;;;;;;10.07;5.18;;;;;;;4.32;100.00;98261.75;4929740;29;20051;-50
2021/11/12 12:01:30;;;;;;;9.70;5.20;;;;;;;4.35;100.00;98253.91;4898403;29;20436;-53
2021/11/12 12:04:14;;;;;;;8.55;4.68;;;;;;;4.36;100.00;98256.44;4929084;29;20648;-49
2021/11/12 12:07:02;;;;;;;10.93;5.45;;;;;;;4.32;100.00;98259.16;4932207;29;20047;-51
2021/11/12 12:09:49;;;;;;;8.60;4.32;;;;;;;4.31;100.00;98266.03;4922452;29;20047;-49
2021/11/12 12:12:35;;;;;;;8.82;5.60;;;;;;;4.29;100.00;98273.00;4930914;29;20496;-50
2021/11/12 12:15:04;;;;;;;10.55;6.30;;;;;;;4.32;100.00;98280.59;4909155;29;20431;-48
2021/11/12 12:17:35;;;;;;;8.85;5.93;;;;;;;4.36;100.00;98261.59;4930690;29;20662;-49
2021/11/12 13:22:37;;;;;;;5.82;2.83;;;;;;;4.86;100.00;98324.31;4931775;29;20095;-49
2021/11/12 13:25:04;;;;;;;6.00;3.30;;;;;;;4.81;100.00;98320.19;4896635;29;20044;-50
2021/11/12 13:27:33;;;;;;;5.50;2.53;;;;;;;4.81;100.00;98325.34;4931220;29;20039;-51
2021/11/12 13:29:59;;;;;;;3.40;1.53;;;;;;;4.79;100.00;98327.09;4931024;29;20427;-52
2021/11/12 13:32:24;;;;;;;5.28;2.60;;;;;;;4.72;100.00;98333.34;4930906;29;20040;-53
2021/11/12 13:34:50;;;;;;;5.20;1.67;;;;;;;4.69;100.00;98330.00;4931657;29;20051;-50
2021/11/12 13:37:22;;;;;;;3.50;1.65;;;;;;;4.72;100.00;98333.34;4933726;29;20051;-48
2021/11/12 13:40:06;;;;;;;2.08;1.65;;;;;;;4.78;100.00;98336.56;4917002;29;20035;-48
2021/11/12 13:42:45;;;;;;;2.65;1.60;;;;;;;4.82;100.00;98335.56;4933888;29;20163;-49
2021/11/12 13:45:25;;;;;;;2.80;1.40;;;;;;;4.77;100.00;98337.44;4932127;29;20082;-52
2021/11/12 13:48:11;;;;;;;2.00;1.08;;;;;;;4.77;100.00;98334.03;4934651;29;20051;-50
2021/11/12 13:50:53;;;;;;;3.05;1.98;;;;;;;4.78;100.00;98344.28;4934096;29;20160;-53
2021/11/12 13:53:19;;;;;;;2.83;1.13;;;;;;;4.65;100.00;98331.00;4917241;29;20449;-52
2021/11/12 13:55:46;;;;;;;3.00;1.25;;;;;;;4.77;100.00;98358.03;4932011;29;20055;-52
2021/11/12 13:58:11;;;;;;;3.85;0.90;;;;;;;4.80;100.00;98362.28;4916349;29;20102;-49
2021/11/12 14:00:38;;;;;;;2.17;1.20;;;;;;;4.79;100.00;98366.56;4918343;29;20052;-50
2021/11/12 14:03:07;;;;;;;1.58;0.80;;;;;;;4.83;100.00;98367.31;4933352;29;20036;-52
2021/11/12 14:05:36;;;;;;;3.38;0.93;;;;;;;4.84;100.00;98364.69;4935633;29;20066;-50
2021/11/12 14:08:12;;;;;;;1.42;0.80;;;;;;;4.84;100.00;98381.88;4933369;29;20039;-49
2021/11/12 14:10:43;;;;;;;0.80;0.50;;;;;;;4.80;100.00;98381.13;4918012;29;20134;-52
2021/11/12 14:13:11;;;;;;;1.65;0.75;;;;;;;4.81;100.00;98389.69;4935163;29;20419;-50
2021/11/12 14:15:48;;;;;;;1.35;0.70;;;;;;;4.85;100.00;98396.44;4918335;29;20044;-49
2021/11/12 14:23:55;;;;;;;1.40;0.68;;;;;;;4.68;100.00;98395.22;4917578;29;20036;-52
2021/11/12 14:26:31;;;;;;;3.38;1.00;;;;;;;4.74;100.00;98398.50;4914243;29;20046;-48
2021/11/12 14:29:08;;;;;;;1.95;0.70;;;;;;;4.71;100.00;98390.88;4916116;29;20044;-53
2021/11/12 14:37:07;;;;;;;1.63;0.73;;;;;;;4.78;100.00;98418.09;4934826;29;20074;-51
2021/11/12 14:39:50;;;;;;;2.08;0.80;;;;;;;4.79;100.00;98410.34;4933551;29;20130;-56
2021/11/12 14:53:14;;;;;;;1.85;0.70;;;;;;;4.89;100.00;98426.34;4914319;29;20056;-53
2021/11/12 14:55:42;;;;;;;2.83;0.95;;;;;;;4.95;100.00;98424.41;4916789;29;20528;-56
2021/11/12 14:58:12;;;;;;;2.28;0.90;;;;;;;4.96;100.00;98433.84;4898149;29;20044;-53
2021/11/12 15:00:39;;;;;;;2.55;0.90;;;;;;;4.91;100.00;98434.88;4914384;29;20048;-50
2021/11/12 15:03:06;;;;;;;2.63;0.90;;;;;;;4.86;100.00;98431.59;4915904;29;20043;-50
2021/11/12 15:05:32;;;;;;;2.95;0.80;;;;;;;4.90;100.00;98428.03;4916040;29;20127;-51
2021/11/12 15:08:42;;;;;;;2.63;0.80;;;;;;;4.82;99.70;98417.94;4914371;29;20051;-55
2021/11/12 15:10:47;;;;;;;1.05;0.50;;;;;;;4.91;99.50;98445.16;4905772;29;20499;-56
2021/11/12 15:13:15;;;;;;;1.83;0.90;;;;;;;4.87;99.42;98457.28;4893545;29;20138;-54
2021/11/12 15:15:41;;;;;;;3.58;0.98;;;;;;;4.90;98.62;98446.91;4911484;29;20055;-53
2021/11/12 15:18:08;;;;;;;4.85;1.10;;;;;;;4.91;97.91;98446.00;4925203;29;20053;-53
2021/11/12 15:20:36;;;;;;;3.67;1.13;;;;;;;4.93;99.88;98461.38;4895719;29;20378;-54
2021/11/12 15:26:00;;;;;;;4.78;1.13;;;;;;;4.67;98.44;98449.31;4913551;29;20086;-53
2021/11/12 15:28:38;;;;;;;1.95;0.82;;;;;;;4.74;97.49;98457.72;4921972;29;20047;-54
2021/11/12 15:31:12;;;;;;;1.63;0.90;;;;;;;4.76;98.77;98466.25;4911768;29;20453;-54
2021/11/12 15:33:38;;;;;;;1.95;0.90;;;;;;;4.83;99.09;98471.13;4925751;29;20091;-53
2021/11/12 15:36:08;;;;;;;0.88;0.55;;;;;;;4.81;98.33;98472.94;4914618;29;20051;-57
2021/11/12 15:38:56;;;;;;;1.98;1.10;;;;;;;4.89;100.00;98464.97;4911413;29;20448;-52
2021/11/12 15:44:12;;;;;;;4.85;1.05;;;;;;;4.84;98.72;98472.81;4910892;29;20040;-51
2021/11/12 15:46:45;;;;;;;1.35;0.90;;;;;;;4.83;98.50;98472.88;4927110;29;20056;-52
2021/11/12 15:49:16;;;;;;;3.45;1.20;;;;;;;4.84;99.02;98480.56;4893940;29;20048;-53
2021/11/12 15:51:46;;;;;;;3.70;1.15;;;;;;;4.80;100.00;98468.66;4908444;29;20203;-55
2021/11/12 15:57:18;;;;;;;1.38;1.00;;;;;;;4.91;99.51;98492.34;4928180;29;20516;-52
2021/11/12 16:13:19;;;;;;;3.35;0.77;;;;;;;4.91;99.47;98515.53;4928499;29;20075;-54
2021/11/12 16:21:22;;;;;;;3.70;1.10;;;;;;;4.95;99.63;98524.00;4914942;29;20058;-50
2021/11/12 16:26:34;;;;;;;2.28;0.93;;;;;;;5.05;98.15;98533.97;4931880;29;20272;-54
2021/11/12 16:31:32;;;;;;;1.83;1.20;;;;;;;4.99;97.94;98546.19;4931144;29;20043;-47
2021/11/12 16:34:03;;;;;;;2.30;1.00;;;;;;;5.01;97.91;98547.84;4940458;29;20046;-50
2021/11/12 16:36:30;;;;;;;2.88;0.93;;;;;;;5.06;97.75;98545.97;4939605;29;20134;-52
2021/11/12 16:38:57;;;;;;;1.30;0.73;;;;;;;4.99;97.29;98557.34;4921518;29;20431;-51
2021/11/12 16:41:27;;;;;;;3.33;1.10;;;;;;;4.99;97.84;98552.19;4936428;29;20036;-56
2021/11/12 16:47:25;;;;;;;;;;;;;;;;;;;;;
2021/11/12 16:58:16;;;;;;;1.80;1.05;;;;;;;5.19;96.74;98563.59;4935389;29;20405;-56
2021/11/12 17:03:50;;;;;;;1.75;0.88;;;;;;;5.16;95.70;98564.56;4938798;29;20035;-55
2021/11/12 17:06:21;;;;;;;2.47;1.25;;;;;;;5.17;97.04;98570.56;4931993;29;20046;-51
2021/11/12 17:11:51;;;;;;;3.17;1.10;;;;;;;5.19;96.96;98561.03;4911618;29;20520;-56
2021/11/12 17:46:56;;;;;;;1.52;0.90;;;;;;;5.42;90.55;98592.94;4927036;29;20039;-67
2021/11/12 21:45:26;;;;;;;2.83;0.85;;;;;;;6.16;86.70;98891.63;5030328;28;20061;-65
2021/11/12 21:47:55;;;;;;;1.10;0.80;;;;;;;6.17;86.50;98895.03;5023746;28;20045;-64
2021/11/12 21:50:21;;;;;;;1.05;0.70;;;;;;;6.13;87.28;98888.25;5054346;28;20056;-65
2021/11/12 21:52:47;;;;;;;1.45;0.93;;;;;;;6.21;87.22;98896.63;5035961;28;20053;-65
2021/11/12 21:55:12;;;;;;;0.95;0.77;;;;;;;6.20;86.69;98892.34;5035109;28;20077;-66
2021/11/12 21:57:38;;;;;;;1.90;0.65;;;;;;;6.12;86.52;98897.75;5031087;28;20048;-65
2021/11/12 22:00:06;;;;;;;0.98;0.73;;;;;;;6.10;86.98;98901.25;5025978;28;20053;-64